createdAt,value
2017-07-09T14:32:08.336Z,100692
2017-07-09T14:42:58.340Z,100674
2017-07-09T14:45:28.226Z,100678
2017-07-09T14:47:58.478Z,100676
2017-07-09T14:50:28.352Z,100673
2017-07-09T14:52:58.225Z,100675
2017-07-09T14:55:28.474Z,100674
2017-07-09T14:57:58.367Z,100671
2017-07-09T15:00:28.259Z,100678
2017-07-09T15:02:58.504Z,100677
2017-07-09T15:05:28.368Z,100671
2017-07-09T15:07:58.291Z,100671
2017-07-09T15:10:28.565Z,100673
2017-07-09T15:12:58.438Z,100674
2017-07-09T15:15:28.278Z,100674
2017-07-09T15:17:58.580Z,100671
2017-07-09T15:20:28.481Z,100666
2017-07-09T15:22:58.704Z,100664
2017-07-09T15:25:28.579Z,100664
2017-07-09T15:27:58.870Z,100659
2017-07-09T15:30:28.733Z,100657
2017-07-09T15:32:58.998Z,100652
2017-07-09T15:35:28.866Z,100649
2017-07-09T15:37:59.129Z,100642
2017-07-09T15:40:28.999Z,100644
2017-07-09T15:42:59.268Z,100639
2017-07-09T15:45:29.118Z,100638
2017-07-09T15:47:59.435Z,100632
2017-07-09T15:50:29.277Z,100624
2017-07-09T15:52:59.541Z,100630
2017-07-09T15:55:29.417Z,100632
2017-07-09T15:57:59.348Z,100623
2017-07-09T16:00:29.657Z,100623
2017-07-09T16:02:59.573Z,100628
2017-07-09T16:05:29.817Z,100618
2017-07-09T16:07:59.693Z,100614
2017-07-09T16:10:29.914Z,100619
2017-07-09T16:12:59.754Z,100612
2017-07-09T16:15:29.981Z,100609
2017-07-09T16:17:59.829Z,100610
2017-07-09T16:20:30.185Z,100597
2017-07-09T16:23:00.041Z,100599
2017-07-09T16:25:30.270Z,100596
2017-07-09T16:28:00.103Z,100593
2017-07-09T16:30:30.459Z,100586
2017-07-09T16:33:00.311Z,100588
2017-07-09T16:35:30.506Z,100587
2017-07-09T16:38:00.370Z,100575
2017-07-09T16:40:30.210Z,100583
2017-07-09T16:43:00.466Z,100581
2017-07-09T16:45:30.279Z,100568
2017-07-09T16:48:00.170Z,100566
2017-07-09T16:50:30.418Z,100571
2017-07-09T16:53:00.258Z,100564
2017-07-09T16:55:30.558Z,100562
2017-07-09T16:58:00.402Z,100565
2017-07-09T17:00:30.272Z,100565
2017-07-09T17:03:00.565Z,100558
2017-07-09T17:05:30.431Z,100559
2017-07-09T17:08:00.344Z,100555
2017-07-09T17:10:30.596Z,100555
2017-07-09T17:13:00.456Z,100551
2017-07-09T17:15:30.355Z,100553
2017-07-09T17:18:00.705Z,100543
2017-07-09T17:20:30.561Z,100557
2017-07-09T17:23:01.047Z,100542
2017-07-09T17:25:31.028Z,100542
2017-07-09T17:28:01.320Z,100542
2017-07-09T17:30:31.185Z,100548
2017-07-09T17:33:01.461Z,100534
2017-07-09T17:35:31.340Z,100532
2017-07-09T17:38:01.278Z,100540
2017-07-09T17:40:31.695Z,100542
2017-07-09T17:43:01.636Z,100543
2017-07-09T17:45:31.974Z,100538
2017-07-09T17:48:01.885Z,100539
2017-07-09T17:50:32.147Z,100535
2017-07-09T17:53:02.013Z,100531
2017-07-09T17:55:32.276Z,100532
2017-07-09T17:58:02.140Z,100532
2017-07-09T18:00:32.421Z,100538
2017-07-09T18:03:02.329Z,100539
2017-07-09T18:05:32.670Z,100543
2017-07-09T18:08:02.572Z,100546
2017-07-09T18:10:32.877Z,100541
2017-07-09T18:13:02.750Z,100544
2017-07-09T18:15:33.019Z,100534
2017-07-09T18:18:02.877Z,100536
2017-07-09T18:20:33.143Z,100539
2017-07-09T18:23:03.010Z,100530
2017-07-09T18:25:33.291Z,100529
2017-07-09T18:28:03.176Z,100537
2017-07-09T18:30:33.538Z,100527
2017-07-09T18:33:03.392Z,100529
2017-07-09T18:35:33.339Z,100535
2017-07-09T18:38:03.517Z,100533
2017-07-09T18:40:33.372Z,100524
2017-07-09T18:43:03.275Z,100528
2017-07-09T18:45:33.737Z,100528
2017-07-09T18:48:03.667Z,100533
2017-07-09T18:50:33.986Z,100531
2017-07-09T18:53:03.901Z,100525
2017-07-09T18:55:34.202Z,100524
2017-07-09T18:58:04.138Z,100530
2017-07-09T19:00:34.499Z,100523
2017-07-09T19:03:04.384Z,100534
2017-07-09T19:05:34.626Z,100542
2017-07-09T19:08:04.549Z,100539
2017-07-09T19:10:34.894Z,100532
2017-07-09T19:13:04.785Z,100530
2017-07-09T19:15:35.089Z,100539
2017-07-09T19:18:04.980Z,100532
2017-07-09T19:20:35.291Z,100535
2017-07-09T19:23:05.930Z,100533
2017-07-09T19:25:36.228Z,100533
2017-07-09T19:28:06.206Z,100530
2017-07-09T19:30:36.533Z,100529
2017-07-09T19:33:06.458Z,100532
2017-07-09T19:35:36.351Z,100537
2017-07-09T19:38:06.656Z,100536
2017-07-09T19:40:36.635Z,100536
2017-07-09T19:43:06.978Z,100538
2017-07-09T19:45:36.877Z,100542
2017-07-09T19:48:07.108Z,100536
2017-07-09T19:50:37.113Z,100545
2017-07-09T19:53:07.366Z,100542
2017-07-09T19:55:37.274Z,100548
2017-07-09T19:58:07.576Z,100549
2017-07-09T20:00:37.506Z,100553
2017-07-09T20:03:07.956Z,100557
2017-07-09T20:05:37.864Z,100553
2017-07-09T20:08:08.137Z,100554
2017-07-09T20:10:38.116Z,100555
2017-07-09T20:13:08.357Z,100563
2017-07-09T20:15:38.258Z,100558
2017-07-09T20:18:08.727Z,100567
2017-07-09T20:20:38.619Z,100572
2017-07-09T20:23:08.877Z,100576
2017-07-09T20:25:38.767Z,100579
2017-07-09T20:28:09.085Z,100575
2017-07-09T20:30:38.992Z,100571
2017-07-09T20:33:09.232Z,100569
2017-07-09T20:35:39.122Z,100570
2017-07-09T20:38:09.451Z,100563
2017-07-09T20:40:39.352Z,100565
2017-07-09T20:43:09.655Z,100566
2017-07-09T20:45:39.601Z,100559
2017-07-09T20:48:09.886Z,100558
2017-07-09T20:50:39.781Z,100554
2017-07-09T20:53:09.984Z,100564
2017-07-09T20:55:39.855Z,100559
2017-07-09T20:58:10.085Z,100558
2017-07-09T21:00:39.983Z,100560
2017-07-09T21:03:10.362Z,100564
2017-07-09T21:05:40.231Z,100552
2017-07-09T21:08:10.488Z,100557
2017-07-09T21:10:40.371Z,100562
2017-07-09T21:13:10.252Z,100559
2017-07-09T21:15:40.531Z,100560
2017-07-09T21:18:10.510Z,100565
2017-07-09T21:20:40.408Z,100556
2017-07-09T21:23:10.751Z,100560
2017-07-09T21:25:40.625Z,100554
2017-07-09T21:28:10.874Z,100550
2017-07-09T21:30:40.735Z,100550
2017-07-09T21:33:10.959Z,100554
2017-07-09T21:35:40.825Z,100544
2017-07-09T21:38:11.106Z,100548
2017-07-09T21:40:40.983Z,100535
2017-07-09T21:43:11.264Z,100538
2017-07-09T21:45:41.161Z,100521
2017-07-09T21:48:11.379Z,100527
2017-07-09T21:50:41.260Z,100521
2017-07-09T21:53:12.724Z,100523
2017-07-09T21:55:43.308Z,100527
2017-07-09T21:58:14.553Z,100524
2017-07-09T22:00:44.513Z,100523
2017-07-09T22:03:15.256Z,100525
2017-07-09T22:05:45.172Z,100529
2017-07-09T22:08:15.480Z,100525
2017-07-09T22:10:45.362Z,100513
2017-07-09T22:13:15.604Z,100517
2017-07-09T22:15:45.628Z,100524
2017-07-09T22:18:18.126Z,100517
2017-07-09T22:20:48.076Z,100520
2017-07-09T22:23:18.454Z,100513
2017-07-09T22:25:48.379Z,100519
2017-07-09T22:28:18.648Z,100516
2017-07-09T22:30:48.555Z,100511
2017-07-09T22:33:18.770Z,100510
2017-07-09T22:35:48.669Z,100513
2017-07-09T22:38:20.932Z,100512
2017-07-09T22:40:50.787Z,100514
2017-07-09T22:43:21.042Z,100518
2017-07-09T22:45:50.931Z,100517
2017-07-09T22:48:21.146Z,100515
2017-07-09T22:50:51.014Z,100517
2017-07-09T22:53:21.279Z,100509
2017-07-09T22:55:51.155Z,100510
2017-07-09T22:58:21.391Z,100501
2017-07-09T23:00:51.236Z,100514
2017-07-09T23:03:21.433Z,100459
2017-07-09T23:05:51.320Z,100502
2017-07-09T23:08:21.263Z,100502
2017-07-09T23:10:51.513Z,100500
2017-07-09T23:13:21.427Z,100503
2017-07-09T23:15:51.325Z,100499
2017-07-09T23:18:21.688Z,100508
2017-07-09T23:20:51.610Z,100498
2017-07-09T23:23:21.972Z,100485
2017-07-09T23:25:51.961Z,100482
2017-07-09T23:28:22.279Z,100480
2017-07-09T23:30:52.213Z,100482
2017-07-09T23:33:22.413Z,100474
2017-07-09T23:35:52.277Z,100476
2017-07-09T23:38:22.193Z,100476
2017-07-09T23:40:52.431Z,100476
2017-07-09T23:43:22.396Z,100472
2017-07-09T23:45:52.307Z,100469
2017-07-09T23:48:22.558Z,100455
2017-07-09T23:50:52.437Z,100464
2017-07-09T23:53:22.322Z,100464
2017-07-09T23:55:52.577Z,100453
2017-07-09T23:58:22.534Z,100454
